Time;durP1;ratioP1;P1;durP2;ratioP2;P2;SDS_P1;SDS_P2;PMS_P1;PMS_P2;Temp;Humidity;BMP_temperature;BMP_pressure;BME280_temperature;BME280_humidity;BME280_pressure;Samples;Min_cycle;Max_cycle;Signal;HPM_P1;HPM_P2
2023/09/08 00:00:00;;;;;;;6.55;5.90;;;20.00;99.90;;;;;;4993933;28;20014;-48
2023/09/08 00:02:27;;;;;;;7.78;7.00;;;19.90;99.90;;;;;;4993778;28;20030;-47
2023/09/08 00:04:54;;;;;;;6.90;6.22;;;19.90;99.90;;;;;;4993553;28;20033;-43
2023/09/08 00:07:19;;;;;;;10.88;6.63;;;19.80;99.90;;;;;;4993651;28;20367;-52
2023/09/08 00:09:45;;;;;;;9.32;6.90;;;19.70;99.90;;;;;;4992683;28;20038;-45
2023/09/08 00:12:10;;;;;;;10.20;6.60;;;19.70;99.90;;;;;;4993638;28;20507;-45
2023/09/08 00:14:36;;;;;;;13.07;7.45;;;19.60;99.90;;;;;;4993417;28;20080;-46
2023/09/08 00:17:02;;;;;;;9.65;6.82;;;19.60;99.90;;;;;;4993706;28;20050;-46
2023/09/08 00:19:27;;;;;;;14.52;7.50;;;19.60;99.90;;;;;;4993704;28;20053;-46
2023/09/08 00:21:53;;;;;;;9.55;6.80;;;19.60;99.90;;;;;;4993616;28;20026;-45
2023/09/08 00:24:18;;;;;;;10.70;6.97;;;19.50;99.90;;;;;;4992146;28;20056;-45
2023/09/08 00:26:44;;;;;;;7.85;7.05;;;19.40;99.90;;;;;;4993537;28;20083;-47
2023/09/08 00:29:10;;;;;;;10.73;7.22;;;19.40;99.90;;;;;;4993512;28;20050;-49
2023/09/08 00:31:35;;;;;;;9.02;7.40;;;19.30;99.90;;;;;;4993197;28;20432;-45
2023/09/08 00:34:00;;;;;;;7.88;7.00;;;19.30;99.90;;;;;;4992923;28;20041;-47
2023/09/08 00:36:27;;;;;;;8.90;7.25;;;19.20;99.90;;;;;;4993109;28;20417;-47
2023/09/08 00:38:52;;;;;;;12.30;6.80;;;19.20;99.90;;;;;;4993030;28;20036;-47
2023/09/08 00:41:18;;;;;;;8.10;6.82;;;19.20;99.90;;;;;;4991705;28;20035;-45
2023/09/08 00:43:43;;;;;;;10.13;6.82;;;19.20;99.90;;;;;;4992713;28;20552;-45
2023/09/08 00:46:10;;;;;;;8.35;7.55;;;19.20;99.90;;;;;;4991876;28;20109;-45
2023/09/08 00:48:37;;;;;;;7.90;7.13;;;19.10;99.90;;;;;;4992741;28;20182;-45
2023/09/08 00:51:04;;;;;;;13.32;7.45;;;19.00;99.90;;;;;;4993098;28;20049;-45
2023/09/08 00:53:30;;;;;;;12.38;6.97;;;19.00;99.90;;;;;;4992403;28;20081;-47
2023/09/08 00:55:56;;;;;;;8.80;7.05;;;19.00;99.90;;;;;;4992911;28;20022;-45
2023/09/08 00:58:22;;;;;;;11.98;7.55;;;18.90;99.90;;;;;;4992727;28;20029;-45
2023/09/08 01:00:47;;;;;;;7.53;6.50;;;18.80;99.90;;;;;;4992913;28;20031;-46
2023/09/08 01:03:13;;;;;;;13.57;6.85;;;18.80;99.90;;;;;;4991301;28;20517;-47
2023/09/08 01:05:39;;;;;;;11.80;7.30;;;18.80;99.90;;;;;;4992514;28;20031;-45
2023/09/08 01:08:06;;;;;;;10.88;7.60;;;18.80;99.90;;;;;;4992462;28;20037;-46
2023/09/08 01:10:32;;;;;;;11.55;6.78;;;18.80;99.90;;;;;;4992694;28;20063;-45
2023/09/08 01:12:57;;;;;;;6.88;6.28;;;18.80;99.90;;;;;;4992537;28;20022;-45
2023/09/08 01:15:23;;;;;;;15.77;7.25;;;18.80;99.90;;;;;;4992178;28;20027;-47
2023/09/08 01:17:49;;;;;;;8.88;7.40;;;18.80;99.90;;;;;;4992263;28;20042;-47
2023/09/08 01:20:22;;;;;;;9.75;6.15;;;18.80;99.90;;;;;;4992444;28;20022;-45
2023/09/08 01:23:18;;;;;;;7.50;6.60;;;18.80;99.90;;;;;;4992410;28;20034;-45
2023/09/08 01:25:55;;;;;;;7.75;6.93;;;18.70;99.90;;;;;;4992588;28;20026;-46
2023/09/08 01:28:21;;;;;;;12.45;7.15;;;18.70;99.90;;;;;;4992368;28;20026;-45
2023/09/08 01:30:48;;;;;;;9.38;6.43;;;18.80;99.90;;;;;;4992123;28;20034;-47
2023/09/08 01:33:14;;;;;;;10.40;7.07;;;18.70;99.90;;;;;;4992183;28;20040;-49
2023/09/08 01:35:39;;;;;;;11.60;6.47;;;18.70;99.90;;;;;;4992288;28;20062;-45
2023/09/08 01:38:05;;;;;;;11.52;6.18;;;18.60;99.90;;;;;;4992263;28;20035;-47
2023/09/08 01:40:30;;;;;;;14.52;6.50;;;18.60;99.90;;;;;;4992313;28;20027;-45
2023/09/08 01:42:56;;;;;;;9.63;6.75;;;18.40;99.90;;;;;;4991775;28;20038;-45
2023/09/08 01:45:21;;;;;;;9.40;6.10;;;18.40;99.90;;;;;;4991966;28;20030;-46
2023/09/08 01:47:47;;;;;;;10.77;6.80;;;18.40;99.90;;;;;;4992001;28;20153;-45
2023/09/08 01:50:12;;;;;;;10.60;7.70;;;18.40;99.90;;;;;;4992244;28;20633;-49
2023/09/08 01:52:38;;;;;;;8.27;6.97;;;18.50;99.90;;;;;;4992164;28;20109;-47
2023/09/08 01:55:04;;;;;;;8.23;6.88;;;18.40;99.90;;;;;;4991820;28;20023;-45
2023/09/08 01:57:29;;;;;;;9.60;7.07;;;18.40;99.90;;;;;;4990769;28;20018;-46
2023/09/08 01:59:55;;;;;;;8.60;7.35;;;18.30;99.90;;;;;;4991997;28;20026;-46
2023/09/08 02:02:20;;;;;;;6.97;6.28;;;18.30;99.90;;;;;;4991909;28;20036;-45
2023/09/08 02:04:46;;;;;;;11.30;7.07;;;18.30;99.90;;;;;;4991709;28;20493;-47
2023/09/08 02:07:12;;;;;;;9.43;7.70;;;18.20;99.90;;;;;;4991984;28;20030;-48
2023/09/08 02:09:38;;;;;;;7.53;6.72;;;18.20;99.90;;;;;;4992077;28;20313;-46
2023/09/08 02:12:04;;;;;;;12.25;6.30;;;18.10;99.90;;;;;;4991899;28;20034;-46
2023/09/08 02:14:30;;;;;;;8.75;6.10;;;18.20;99.90;;;;;;4991551;28;20033;-45
2023/09/08 02:16:56;;;;;;;10.48;6.60;;;18.20;99.90;;;;;;4991831;28;20030;-50
2023/09/08 02:19:22;;;;;;;8.20;7.38;;;18.20;99.90;;;;;;4991887;28;20027;-48
2023/09/08 02:21:48;;;;;;;10.48;7.03;;;18.20;99.90;;;;;;4991972;28;20379;-45
2023/09/08 02:24:14;;;;;;;7.45;6.75;;;18.20;99.90;;;;;;4991613;28;20034;-48
2023/09/08 02:26:39;;;;;;;7.95;7.13;;;18.20;99.90;;;;;;4991888;28;20031;-47
2023/09/08 02:29:05;;;;;;;12.48;6.88;;;18.20;99.90;;;;;;4991736;28;20031;-45
2023/09/08 02:31:31;;;;;;;8.57;7.20;;;18.10;99.90;;;;;;4991467;28;20101;-45
2023/09/08 02:33:56;;;;;;;8.93;6.63;;;18.10;99.90;;;;;;4991757;28;20032;-45
2023/09/08 02:36:25;;;;;;;8.60;7.03;;;18.10;99.90;;;;;;4991708;28;20122;-45
2023/09/08 02:38:54;;;;;;;11.48;7.22;;;18.10;99.90;;;;;;4991748;28;20026;-45
2023/09/08 02:41:20;;;;;;;8.00;6.80;;;18.10;99.90;;;;;;4991912;28;20022;-44
2023/09/08 02:43:46;;;;;;;17.77;6.72;;;18.00;99.90;;;;;;4991512;28;20033;-45
2023/09/08 02:46:12;;;;;;;8.40;6.82;;;17.90;99.90;;;;;;4990394;28;20030;-49
2023/09/08 02:48:38;;;;;;;8.43;6.63;;;17.90;99.90;;;;;;4991435;28;20065;-46
2023/09/08 02:51:04;;;;;;;10.63;7.00;;;17.90;99.90;;;;;;4991618;28;20117;-45
2023/09/08 02:53:30;;;;;;;9.60;6.65;;;17.90;99.90;;;;;;4992955;28;20109;-45
2023/09/08 02:55:56;;;;;;;10.20;6.63;;;18.00;99.90;;;;;;4995201;28;20022;-45
2023/09/08 02:58:21;;;;;;;12.45;6.78;;;18.00;99.90;;;;;;4995128;28;20377;-42
2023/09/08 03:00:47;;;;;;;8.07;7.15;;;18.00;99.90;;;;;;4995223;28;20394;-45
2023/09/08 03:03:13;;;;;;;6.93;6.22;;;18.00;99.90;;;;;;4994871;28;20108;-44
2023/09/08 03:05:38;;;;;;;9.85;6.53;;;18.00;99.90;;;;;;4994854;28;20541;-47
2023/09/08 03:08:05;;;;;;;10.50;6.18;;;17.90;99.90;;;;;;4994856;28;20026;-45
2023/09/08 03:10:33;;;;;;;7.25;6.55;;;17.90;99.90;;;;;;4994930;28;20041;-47
2023/09/08 03:13:03;;;;;;;7.55;6.03;;;17.90;99.90;;;;;;4994837;28;20076;-43
2023/09/08 03:15:28;;;;;;;14.13;6.70;;;17.90;99.90;;;;;;4994497;28;20513;-47
2023/09/08 03:18:00;;;;;;;8.95;6.78;;;17.90;99.90;;;;;;4994668;28;20026;-43
2023/09/08 03:20:28;;;;;;;9.02;6.60;;;17.90;99.90;;;;;;4994679;28;20074;-44
2023/09/08 03:22:53;;;;;;;6.47;5.88;;;17.90;99.90;;;;;;4994623;28;20509;-44
2023/09/08 03:25:19;;;;;;;9.32;6.38;;;17.90;99.90;;;;;;4994213;28;20120;-46
2023/09/08 03:27:44;;;;;;;12.55;6.90;;;17.90;99.90;;;;;;4994553;28;20066;-47
2023/09/08 03:30:10;;;;;;;6.80;6.15;;;17.90;99.90;;;;;;4994619;28;20033;-47
2023/09/08 03:32:36;;;;;;;8.27;6.30;;;17.90;99.90;;;;;;4994038;28;20524;-46
2023/09/08 03:35:03;;;;;;;8.32;6.80;;;17.90;99.90;;;;;;4994160;28;20122;-48
2023/09/08 03:37:29;;;;;;;7.13;5.63;;;17.90;99.90;;;;;;4994255;28;20069;-48
2023/09/08 03:39:54;;;;;;;11.20;6.97;;;17.90;99.90;;;;;;4994500;28;20464;-47
2023/09/08 03:42:20;;;;;;;10.45;5.95;;;17.90;99.90;;;;;;4994411;28;20030;-46
2023/09/08 03:44:45;;;;;;;8.52;6.35;;;17.80;99.90;;;;;;4994048;28;20030;-45
2023/09/08 03:47:11;;;;;;;7.40;6.70;;;17.80;99.90;;;;;;4994040;28;20046;-49
2023/09/08 03:49:36;;;;;;;7.38;5.95;;;17.80;99.90;;;;;;4994200;28;20034;-45
2023/09/08 03:52:02;;;;;;;7.53;5.93;;;17.80;99.90;;;;;;4994025;28;20382;-41
2023/09/08 03:54:28;;;;;;;10.10;6.82;;;17.80;99.90;;;;;;4993812;28;20018;-47
2023/09/08 03:56:53;;;;;;;6.60;5.32;;;17.80;99.90;;;;;;4994046;28;20045;-46
2023/09/08 03:59:19;;;;;;;9.23;6.30;;;17.80;99.90;;;;;;4994098;28;20051;-44
2023/09/08 04:01:44;;;;;;;9.10;6.35;;;17.80;99.90;;;;;;4993911;28;20023;-46
2023/09/08 04:04:10;;;;;;;10.00;6.63;;;17.80;99.90;;;;;;4993155;28;20405;-46
2023/09/08 04:06:35;;;;;;;6.95;5.80;;;17.80;99.90;;;;;;4993713;28;20097;-44
2023/09/08 04:09:01;;;;;;;9.70;6.45;;;17.80;99.90;;;;;;4993874;28;20037;-45
2023/09/08 04:11:26;;;;;;;8.57;6.30;;;17.80;99.90;;;;;;4993836;28;20034;-43
2023/09/08 04:13:52;;;;;;;7.45;6.68;;;17.70;99.90;;;;;;4993395;28;20045;-45
2023/09/08 04:16:18;;;;;;;7.07;6.30;;;17.70;99.90;;;;;;4993650;28;20018;-45
2023/09/08 04:18:43;;;;;;;7.45;6.68;;;17.70;99.90;;;;;;4993471;28;20090;-44
2023/09/08 04:21:09;;;;;;;10.55;6.78;;;17.70;99.90;;;;;;4993617;28;20447;-49
2023/09/08 04:23:34;;;;;;;7.35;6.13;;;17.60;99.90;;;;;;4991911;28;20031;-44
2023/09/08 04:26:00;;;;;;;8.07;6.65;;;17.50;99.90;;;;;;4993538;28;20113;-46
2023/09/08 04:28:25;;;;;;;8.30;6.22;;;17.50;99.90;;;;;;4993390;28;20026;-47
2023/09/08 04:30:51;;;;;;;10.07;7.07;;;17.30;99.90;;;;;;4993194;28;20031;-46
2023/09/08 04:33:16;;;;;;;7.30;6.57;;;17.30;99.90;;;;;;4993090;28;20034;-44
2023/09/08 04:35:43;;;;;;;6.75;6.05;;;17.20;99.90;;;;;;4993538;28;20034;-44
2023/09/08 04:38:08;;;;;;;8.95;6.97;;;17.10;99.90;;;;;;4993390;28;20031;-44
2023/09/08 04:40:33;;;;;;;7.72;6.68;;;17.10;99.90;;;;;;4991977;28;20034;-41
2023/09/08 04:42:59;;;;;;;7.65;6.40;;;17.10;99.90;;;;;;4993520;28;20500;-43
2023/09/08 04:45:25;;;;;;;12.43;6.20;;;17.10;99.90;;;;;;4992746;28;20046;-44
2023/09/08 04:47:50;;;;;;;8.00;7.20;;;17.10;99.90;;;;;;4992956;28;20084;-44
2023/09/08 04:50:16;;;;;;;11.70;6.65;;;17.10;99.90;;;;;;4993052;28;20114;-45
2023/09/08 04:52:41;;;;;;;8.60;7.65;;;17.10;99.90;;;;;;4992811;28;20420;-45
2023/09/08 04:55:07;;;;;;;10.73;7.00;;;17.10;99.90;;;;;;4992638;28;20438;-44
2023/09/08 04:57:33;;;;;;;10.43;6.93;;;17.10;99.90;;;;;;4992646;28;20022;-47
2023/09/08 04:59:58;;;;;;;9.95;6.05;;;17.00;99.90;;;;;;4992744;28;20501;-44
2023/09/08 05:02:24;;;;;;;7.82;6.80;;;17.00;99.90;;;;;;4992643;28;20034;-44
2023/09/08 05:04:49;;;;;;;11.70;7.30;;;17.00;99.90;;;;;;4992363;28;20018;-44
2023/09/08 05:07:15;;;;;;;14.05;7.20;;;17.10;99.90;;;;;;4992614;28;20029;-44
2023/09/08 05:09:41;;;;;;;11.45;7.20;;;17.20;99.90;;;;;;4992626;28;20060;-44
2023/09/08 05:12:06;;;;;;;11.23;7.35;;;17.20;99.90;;;;;;4992515;28;20041;-44
2023/09/08 05:14:32;;;;;;;10.65;7.13;;;17.20;99.90;;;;;;4991978;28;20730;-44
2023/09/08 05:16:57;;;;;;;9.85;7.65;;;17.30;99.90;;;;;;4991586;28;20022;-45
2023/09/08 05:19:23;;;;;;;12.32;7.72;;;17.30;99.90;;;;;;4992469;28;20029;-44
2023/09/08 05:21:54;;;;;;;9.02;7.43;;;17.30;99.90;;;;;;4992212;28;20165;-46
2023/09/08 05:24:20;;;;;;;10.00;7.47;;;17.30;99.90;;;;;;4992471;28;20077;-45
2023/09/08 05:26:46;;;;;;;10.27;7.28;;;17.30;99.90;;;;;;4992184;28;20049;-43
2023/09/08 05:29:12;;;;;;;11.43;7.28;;;17.30;99.90;;;;;;4992174;28;20486;-46
2023/09/08 05:31:37;;;;;;;9.85;6.97;;;17.30;99.90;;;;;;4991883;28;20489;-47
2023/09/08 05:34:03;;;;;;;11.18;7.18;;;17.40;99.90;;;;;;4991901;28;20065;-44
2023/09/08 05:36:29;;;;;;;11.35;7.28;;;17.40;99.90;;;;;;4992029;28;20022;-45
2023/09/08 05:38:55;;;;;;;11.52;7.25;;;17.50;99.90;;;;;;4992012;28;20481;-44
2023/09/08 05:41:21;;;;;;;9.68;6.88;;;17.50;99.90;;;;;;4991880;28;20093;-44
2023/09/08 05:43:46;;;;;;;9.40;6.57;;;17.60;99.90;;;;;;4991884;28;20026;-46
2023/09/08 05:46:12;;;;;;;9.75;6.43;;;17.70;99.90;;;;;;4992212;28;20030;-47
2023/09/08 05:48:38;;;;;;;9.68;6.72;;;17.70;99.90;;;;;;4991950;28;20030;-44
2023/09/08 05:51:05;;;;;;;8.65;6.75;;;17.70;99.90;;;;;;4992030;28;20053;-45
2023/09/08 05:53:30;;;;;;;10.43;6.70;;;17.70;99.90;;;;;;4991548;28;20022;-45
2023/09/08 05:55:56;;;;;;;6.70;5.85;;;17.80;99.90;;;;;;4992076;28;20042;-44
2023/09/08 05:58:21;;;;;;;8.05;6.78;;;17.80;99.90;;;;;;4992067;28;20389;-44
2023/09/08 06:00:47;;;;;;;17.98;7.18;;;17.90;99.90;;;;;;4991930;28;20029;-41
2023/09/08 06:03:12;;;;;;;9.82;6.57;;;17.90;99.90;;;;;;4991828;28;20109;-46
2023/09/08 06:05:38;;;;;;;6.93;5.85;;;18.00;99.90;;;;;;4991843;28;20081;-44
2023/09/08 06:08:04;;;;;;;9.32;6.20;;;18.10;99.90;;;;;;4991817;28;20461;-47
2023/09/08 06:10:30;;;;;;;7.22;6.50;;;18.20;99.90;;;;;;4991925;28;20030;-42
2023/09/08 06:12:56;;;;;;;8.63;6.50;;;18.30;99.90;;;;;;4991951;28;20019;-44
2023/09/08 06:15:21;;;;;;;8.85;6.43;;;18.40;99.90;;;;;;4991596;28;20030;-44
2023/09/08 06:17:47;;;;;;;6.70;6.00;;;18.50;99.90;;;;;;4991797;28;20076;-45
2023/09/08 06:20:13;;;;;;;7.70;6.70;;;18.60;99.90;;;;;;4991910;28;20019;-49
2023/09/08 06:22:38;;;;;;;7.30;6.28;;;18.60;99.90;;;;;;4991839;28;20039;-44
2023/09/08 06:25:04;;;;;;;11.45;6.15;;;18.70;99.90;;;;;;4991484;28;20034;-44
2023/09/08 06:27:30;;;;;;;12.48;6.95;;;18.80;99.90;;;;;;4992179;28;20026;-45
2023/09/08 06:29:56;;;;;;;6.80;6.18;;;18.90;99.90;;;;;;4995577;28;20037;-45
2023/09/08 06:32:22;;;;;;;6.32;5.70;;;19.00;99.90;;;;;;4995221;28;20059;-44
2023/09/08 06:34:47;;;;;;;11.15;5.90;;;19.10;99.90;;;;;;4995102;28;20023;-44
2023/09/08 06:37:13;;;;;;;5.68;5.18;;;19.20;99.90;;;;;;4994230;28;20122;-45
2023/09/08 06:39:38;;;;;;;7.38;6.10;;;19.30;99.90;;;;;;4995442;28;20038;-44
2023/09/08 06:42:04;;;;;;;7.22;6.05;;;19.40;99.90;;;;;;4995446;28;20101;-45
2023/09/08 06:44:30;;;;;;;15.05;5.75;;;19.60;99.90;;;;;;4995035;28;20470;-44
2023/09/08 06:46:55;;;;;;;5.70;5.20;;;20.00;99.90;;;;;;4995207;28;20121;-45
2023/09/08 06:49:21;;;;;;;7.30;5.25;;;20.30;99.90;;;;;;4995201;28;20034;-46
2023/09/08 06:51:48;;;;;;;9.77;5.40;;;20.70;99.90;;;;;;4995122;28;20058;-47
2023/09/08 06:54:13;;;;;;;6.13;4.93;;;21.00;99.90;;;;;;4995142;28;20078;-47
2023/09/08 06:56:39;;;;;;;5.53;4.70;;;21.50;99.90;;;;;;4995386;28;20022;-45
2023/09/08 06:59:04;;;;;;;6.43;5.22;;;22.50;99.90;;;;;;4995062;28;20402;-47
2023/09/08 07:01:30;;;;;;;5.63;4.40;;;23.70;99.90;;;;;;4994993;28;20086;-46
2023/09/08 07:03:55;;;;;;;7.80;4.20;;;25.00;99.90;;;;;;4994627;28;20084;-47
2023/09/08 07:06:24;;;;;;;10.18;4.90;;;25.70;99.90;;;;;;4995042;28;20022;-48
2023/09/08 07:08:50;;;;;;;6.05;4.40;;;26.60;99.90;;;;;;4994981;28;20023;-45
2023/09/08 07:11:16;;;;;;;9.15;4.70;;;27.10;99.30;;;;;;4994931;28;20034;-49
2023/09/08 07:13:41;;;;;;;7.43;4.05;;;27.70;98.80;;;;;;4994717;28;20030;-47
2023/09/08 07:16:07;;;;;;;9.57;4.18;;;28.10;97.30;;;;;;4994878;28;20386;-47
2023/09/08 07:18:35;;;;;;;6.32;4.15;;;28.40;96.60;;;;;;4994617;28;20031;-46
2023/09/08 07:21:01;;;;;;;5.90;3.65;;;29.00;96.50;;;;;;4994789;28;20023;-45
2023/09/08 07:23:27;;;;;;;5.03;4.25;;;29.50;95.50;;;;;;4994365;28;20125;-46
2023/09/08 07:25:52;;;;;;;7.13;3.80;;;29.90;94.30;;;;;;4994721;28;20505;-46
2023/09/08 07:28:18;;;;;;;4.78;4.22;;;29.70;94.00;;;;;;4993317;28;20030;-47
2023/09/08 07:30:44;;;;;;;5.15;3.92;;;29.60;94.20;;;;;;4994673;28;20030;-46
2023/09/08 07:33:09;;;;;;;6.97;3.97;;;29.60;94.20;;;;;;4994573;28;20031;-46
2023/09/08 07:35:39;;;;;;;5.60;3.58;;;29.70;94.00;;;;;;4994489;28;20109;-47
2023/09/08 07:38:05;;;;;;;3.70;3.40;;;30.20;93.80;;;;;;4994011;28;20018;-48
2023/09/08 07:40:35;;;;;;;4.07;3.60;;;30.80;92.60;;;;;;4988364;28;20062;-48
2023/09/08 07:43:00;;;;;;;9.18;3.97;;;31.00;92.00;;;;;;4992948;28;20034;-47
2023/09/08 07:45:26;;;;;;;4.72;3.40;;;31.20;91.90;;;;;;4993665;28;20512;-48
2023/09/08 07:47:52;;;;;;;6.03;3.45;;;31.50;91.40;;;;;;4994142;28;20066;-45
2023/09/08 07:50:23;;;;;;;7.70;3.65;;;31.90;90.90;;;;;;4994216;28;20038;-48
2023/09/08 07:52:49;;;;;;;6.80;3.60;;;32.30;90.70;;;;;;4993652;28;20026;-45
2023/09/08 07:55:15;;;;;;;3.55;3.20;;;32.70;89.90;;;;;;4993671;28;20423;-45
2023/09/08 07:57:42;;;;;;;5.25;2.97;;;32.70;89.30;;;;;;4993289;28;20508;-47
2023/09/08 08:00:10;;;;;;;4.68;3.90;;;33.00;87.80;;;;;;4993962;28;20019;-47
2023/09/08 08:02:37;;;;;;;4.05;3.65;;;32.80;87.20;;;;;;4994018;28;20057;-47
2023/09/08 08:05:02;;;;;;;5.57;3.80;;;33.00;86.30;;;;;;4993810;28;20022;-48
2023/09/08 08:07:29;;;;;;;3.40;3.10;;;33.20;85.70;;;;;;4994059;28;20019;-47
2023/09/08 08:09:55;;;;;;;4.65;3.20;;;33.10;85.70;;;;;;4993521;28;20102;-49
2023/09/08 08:12:20;;;;;;;4.00;3.10;;;32.80;85.60;;;;;;4993350;28;20584;-47
2023/09/08 08:14:46;;;;;;;7.30;4.20;;;33.30;85.70;;;;;;4993228;28;20022;-48
2023/09/08 08:17:12;;;;;;;4.82;3.58;;;33.40;84.50;;;;;;4992275;28;20018;-47
2023/09/08 08:19:38;;;;;;;4.90;3.53;;;33.60;83.30;;;;;;4993676;28;20135;-48
2023/09/08 08:22:03;;;;;;;4.10;3.30;;;33.20;83.80;;;;;;4993693;28;20046;-47
2023/09/08 08:24:29;;;;;;;5.05;3.67;;;33.20;83.60;;;;;;4993356;28;20088;-50
2023/09/08 08:26:54;;;;;;;4.78;3.10;;;33.20;84.00;;;;;;4992919;28;20517;-48
2023/09/08 08:29:20;;;;;;;3.88;3.20;;;33.10;82.60;;;;;;4991844;28;20409;-53
2023/09/08 08:31:45;;;;;;;5.32;3.47;;;33.20;83.80;;;;;;4993382;28;20034;-49
2023/09/08 08:34:11;;;;;;;5.30;3.70;;;33.80;82.00;;;;;;4992961;28;20030;-51
2023/09/08 08:36:36;;;;;;;5.18;3.15;;;33.50;81.90;;;;;;4993214;28;20026;-50
2023/09/08 08:39:02;;;;;;;7.53;3.40;;;33.40;82.90;;;;;;4993165;28;20120;-50
2023/09/08 08:41:29;;;;;;;3.28;2.88;;;33.70;81.60;;;;;;4993085;28;20022;-51
2023/09/08 08:43:55;;;;;;;11.40;3.97;;;33.60;81.40;;;;;;4992255;28;20031;-54
2023/09/08 08:46:22;;;;;;;4.82;3.50;;;34.00;80.50;;;;;;4992709;28;20045;-53
2023/09/08 08:48:49;;;;;;;3.40;3.08;;;33.90;80.30;;;;;;4992800;28;20034;-51
2023/09/08 08:51:17;;;;;;;4.10;3.40;;;34.20;80.90;;;;;;4992877;28;20031;-51
2023/09/08 08:53:43;;;;;;;3.80;3.25;;;34.30;80.30;;;;;;4991325;28;20351;-54
2023/09/08 08:56:10;;;;;;;4.35;3.33;;;34.20;79.20;;;;;;4992818;28;20027;-54
2023/09/08 08:58:39;;;;;;;7.45;3.47;;;34.30;79.40;;;;;;4992558;28;20030;-52
2023/09/08 09:01:06;;;;;;;5.45;3.30;;;34.60;78.00;;;;;;4992712;28;20023;-52
2023/09/08 09:03:34;;;;;;;3.60;3.30;;;34.80;78.50;;;;;;4992314;28;20034;-49
2023/09/08 09:06:01;;;;;;;8.23;3.33;;;34.90;77.60;;;;;;4991968;28;20066;-60
2023/09/08 09:08:27;;;;;;;7.10;3.28;;;34.40;77.80;;;;;;4985331;28;20026;-57
2023/09/08 09:10:53;;;;;;;12.93;7.68;;;34.40;78.20;;;;;;4971802;28;20027;-58
2023/09/08 09:13:19;;;;;;;11.55;8.70;;;34.60;77.60;;;;;;4975208;28;20038;-54
2023/09/08 09:15:46;;;;;;;6.53;3.72;;;34.60;77.20;;;;;;4991807;28;20022;-60
2023/09/08 09:18:11;;;;;;;7.07;3.20;;;34.40;77.40;;;;;;4991873;28;20018;-60
2023/09/08 09:20:37;;;;;;;3.90;2.83;;;34.40;77.50;;;;;;4981274;28;20089;-61
2023/09/08 09:23:03;;;;;;;5.22;3.67;;;34.20;78.30;;;;;;4991128;28;20441;-60
2023/09/08 09:25:31;;;;;;;9.48;3.95;;;33.40;78.50;;;;;;4989893;28;20097;-59
2023/09/08 09:27:58;;;;;;;7.07;3.55;;;32.90;80.10;;;;;;4986762;28;20030;-58
2023/09/08 09:30:25;;;;;;;3.88;3.58;;;32.50;81.10;;;;;;4992180;28;20038;-58
2023/09/08 09:33:01;;;;;;;10.32;4.18;;;31.60;81.60;;;;;;4992123;28;20030;-58
2023/09/08 09:35:41;;;;;;;4.63;4.07;;;31.00;82.70;;;;;;4991190;28;20014;-57
2023/09/08 09:38:08;;;;;;;4.20;3.67;;;30.20;84.90;;;;;;4990135;28;20022;-49
2023/09/08 09:40:33;;;;;;;3.58;3.25;;;29.80;86.80;;;;;;4976056;28;20034;-50
2023/09/08 09:42:59;;;;;;;8.02;4.45;;;30.00;88.30;;;;;;4992139;28;20129;-49
2023/09/08 09:45:25;;;;;;;8.77;3.83;;;30.20;86.50;;;;;;4991229;28;20093;-50
2023/09/08 09:47:52;;;;;;;9.65;3.78;;;30.00;87.40;;;;;;4991009;28;20117;-49
2023/09/08 09:50:29;;;;;;;5.13;3.83;;;30.10;87.00;;;;;;4991781;28;20038;-51
2023/09/08 09:52:58;;;;;;;7.05;4.25;;;30.20;87.10;;;;;;4979743;28;20109;-51
2023/09/08 09:55:24;;;;;;;6.57;3.85;;;30.40;87.60;;;;;;4983202;28;20014;-48
2023/09/08 09:57:52;;;;;;;4.80;4.38;;;30.50;88.30;;;;;;4980032;28;20023;-52
2023/09/08 10:00:19;;;;;;;5.05;4.00;;;30.40;88.10;;;;;;4989416;28;20066;-53
2023/09/08 10:02:45;;;;;;;5.70;4.43;;;30.40;89.10;;;;;;4982228;28;20109;-56
2023/09/08 10:05:12;;;;;;;6.05;4.10;;;30.50;88.60;;;;;;4974600;28;20029;-55
2023/09/08 10:07:40;;;;;;;11.70;3.90;;;30.30;89.40;;;;;;4980441;28;20040;-51
2023/09/08 10:10:06;;;;;;;10.02;5.78;;;30.20;88.30;;;;;;4994737;28;20038;-52
2023/09/08 10:12:34;;;;;;;5.40;4.60;;;30.20;88.30;;;;;;4995094;28;20030;-51
2023/09/08 10:15:04;;;;;;;25.42;16.45;;;30.40;89.20;;;;;;4995101;28;20022;-54
2023/09/08 10:17:31;;;;;;;5.45;4.07;;;30.40;87.90;;;;;;4995632;28;20101;-52
2023/09/08 10:20:00;;;;;;;5.97;3.90;;;30.20;88.90;;;;;;4995042;28;20363;-50
2023/09/08 10:22:31;;;;;;;4.78;4.38;;;29.70;88.50;;;;;;4995143;28;20090;-53
2023/09/08 10:25:03;;;;;;;10.05;4.03;;;29.50;89.50;;;;;;4995349;28;20514;-49
2023/09/08 10:27:29;;;;;;;3.92;3.63;;;29.30;90.20;;;;;;4994804;28;20033;-51
2023/09/08 10:29:55;;;;;;;7.28;4.35;;;29.20;90.50;;;;;;4995973;28;20030;-50
2023/09/08 10:32:22;;;;;;;6.85;3.90;;;29.30;90.80;;;;;;4976290;28;20045;-52
2023/09/08 10:34:48;;;;;;;5.18;4.60;;;29.20;90.20;;;;;;4976027;28;20038;-52
2023/09/08 10:37:21;;;;;;;4.78;4.38;;;28.90;90.30;;;;;;4975092;28;20029;-49
2023/09/08 10:39:47;;;;;;;5.55;4.43;;;28.80;90.70;;;;;;4975777;28;20022;-49
2023/09/08 10:42:21;;;;;;;8.77;3.95;;;28.40;91.10;;;;;;4982644;28;20022;-49
2023/09/08 10:44:49;;;;;;;5.32;4.03;;;28.10;91.50;;;;;;4994882;28;20019;-45
2023/09/08 10:47:30;;;;;;;6.63;4.65;;;28.10;91.80;;;;;;4994869;28;20034;-50
2023/09/08 10:49:57;;;;;;;5.55;3.90;;;28.10;92.00;;;;;;4994983;28;20026;-52
2023/09/08 10:52:24;;;;;;;5.53;3.72;;;28.00;91.70;;;;;;4995238;28;20449;-47
2023/09/08 10:54:51;;;;;;;5.03;4.28;;;28.00;91.70;;;;;;4993987;28;20049;-49
2023/09/08 10:57:20;;;;;;;9.73;4.20;;;28.00;91.30;;;;;;4994271;28;20121;-47
2023/09/08 11:00:11;;;;;;;7.72;3.92;;;27.80;91.60;;;;;;4993680;28;20026;-49
2023/09/08 11:02:38;;;;;;;4.32;3.92;;;27.90;91.90;;;;;;4995147;28;20041;-47
2023/09/08 11:05:10;;;;;;;6.47;4.18;;;27.80;92.00;;;;;;4994642;28;20504;-47
2023/09/08 11:07:37;;;;;;;4.68;4.20;;;27.70;91.80;;;;;;4994919;28;20037;-52
2023/09/08 11:10:04;;;;;;;9.90;4.35;;;27.70;92.30;;;;;;4994830;28;20027;-46
2023/09/08 11:12:31;;;;;;;6.88;5.65;;;27.70;92.50;;;;;;4994640;28;20023;-47
2023/09/08 11:15:00;;;;;;;18.40;16.42;;;27.70;92.70;;;;;;4991824;28;20034;-46
2023/09/08 11:17:27;;;;;;;7.63;5.35;;;27.70;92.90;;;;;;4994502;28;20101;-49
2023/09/08 11:19:53;;;;;;;7.03;4.82;;;27.50;92.60;;;;;;4994603;28;20117;-49
2023/09/08 11:22:23;;;;;;;4.93;3.63;;;27.50;92.60;;;;;;4994359;28;20553;-46
2023/09/08 11:24:49;;;;;;;5.72;3.85;;;27.40;93.30;;;;;;4994514;28;20018;-49
2023/09/08 11:27:15;;;;;;;4.82;4.15;;;27.40;93.00;;;;;;4995011;28;20036;-51
2023/09/08 11:29:41;;;;;;;4.13;3.72;;;27.30;93.00;;;;;;4995061;28;20022;-49
2023/09/08 11:32:10;;;;;;;4.50;3.78;;;27.20;93.90;;;;;;4994982;28;20026;-46
2023/09/08 11:34:36;;;;;;;4.72;3.92;;;27.20;93.50;;;;;;4993848;28;20113;-48
2023/09/08 11:37:13;;;;;;;7.07;3.47;;;27.20;93.20;;;;;;4994364;28;20033;-51
2023/09/08 11:39:48;;;;;;;4.32;3.92;;;27.20;93.50;;;;;;4994446;28;20022;-50
2023/09/08 11:42:15;;;;;;;5.53;4.50;;;27.20;93.50;;;;;;4994759;28;20030;-48
2023/09/08 11:44:41;;;;;;;11.02;4.75;;;27.20;93.40;;;;;;4994048;28;20034;-47
2023/09/08 11:47:09;;;;;;;5.03;4.53;;;27.10;93.10;;;;;;4993745;28;20034;-48
2023/09/08 11:49:39;;;;;;;4.72;4.25;;;27.10;93.20;;;;;;4994388;28;20214;-47
2023/09/08 11:52:06;;;;;;;11.18;4.28;;;27.10;93.60;;;;;;4994133;28;20026;-48
2023/09/08 11:54:33;;;;;;;5.63;4.20;;;27.30;93.70;;;;;;4993820;28;20449;-47
2023/09/08 11:57:00;;;;;;;4.47;3.90;;;27.30;93.70;;;;;;4994093;28;20110;-49
2023/09/08 11:59:28;;;;;;;6.55;3.97;;;27.40;93.50;;;;;;4994469;28;20053;-50
2023/09/08 12:01:55;;;;;;;4.93;4.10;;;27.40;93.30;;;;;;4993913;28;20026;-49
2023/09/08 12:04:20;;;;;;;5.60;3.92;;;27.50;93.00;;;;;;4993418;28;20502;-45
2023/09/08 12:06:48;;;;;;;5.68;4.22;;;27.40;93.00;;;;;;4993930;28;20038;-51
2023/09/08 12:09:14;;;;;;;4.53;4.13;;;27.40;93.30;;;;;;4993888;28;20053;-48
2023/09/08 12:11:42;;;;;;;7.45;3.72;;;27.50;93.10;;;;;;4993671;28;20030;-49
2023/09/08 12:14:10;;;;;;;4.07;3.63;;;27.60;92.70;;;;;;4993540;28;20052;-50
2023/09/08 12:16:36;;;;;;;5.55;4.63;;;27.60;92.40;;;;;;4993567;28;20018;-43
2023/09/08 12:19:01;;;;;;;6.13;3.72;;;27.70;92.40;;;;;;4993521;28;20022;-50
2023/09/08 12:21:27;;;;;;;5.30;4.10;;;27.70;92.30;;;;;;4993631;28;20117;-48
2023/09/08 12:23:54;;;;;;;5.00;3.60;;;27.60;92.20;;;;;;4993294;28;20030;-50
2023/09/08 12:26:20;;;;;;;5.22;3.80;;;27.60;92.40;;;;;;4992927;28;20037;-46
2023/09/08 12:28:46;;;;;;;7.25;4.45;;;27.70;92.40;;;;;;4993600;28;20034;-47
2023/09/08 12:31:16;;;;;;;4.82;4.00;;;27.70;92.50;;;;;;4993102;28;20129;-48
2023/09/08 12:33:46;;;;;;;14.63;4.45;;;27.70;92.50;;;;;;4992794;28;20513;-47
2023/09/08 12:36:15;;;;;;;4.03;3.50;;;27.70;92.60;;;;;;4992139;28;20113;-50
2023/09/08 12:38:41;;;;;;;8.43;3.70;;;27.80;92.00;;;;;;4993111;28;20392;-48